Banbury, United Kingdom
Current Conditions -  °F | °C
As of 8:50 AM on Monday 22 Dec 2014 (Local Time) from EGTK Reporting Station
Broken Clouds Broken Clouds  
Wind Chill: 54°   Ceiling: 1800
Heat Index: 54°   Visibility: 6mi
Dew Point: 50°   Wind: 26mph
Humidity: 88%   Direction: 240°WSW
Pressure: 29.97"   Gusts: 39mph
Location:  52.06°N, 1.34°W
Report Text: EGTK 220850Z 24023G34KT 9999 SCT015 BKN018 BKN021 12/10 Q1015
Loading
Personal Weather Stations






























Interactive Weather Map New forecast layout! Learn more

10-Day Weather Forecast

Advertisements
Track Severe Weather on mobile